Time;durP1;ratioP1;P1;durP2;ratioP2;P2;SDS_P1;SDS_P2;PMS_P1;PMS_P2;Temp;Humidity;BMP_temperature;BMP_pressure;BME280_temperature;BME280_humidity;BME280_pressure;Samples;Min_cycle;Max_cycle;Signal;HPM_P1;HPM_P2
2023/03/23 00:01:49;;;;;;;7.57;5.40;;;15.00;91.50;;;;;;5064875;28;20528;-62
2023/03/23 00:04:16;;;;;;;10.20;6.67;;;15.00;91.50;;;;;;5070252;28;21029;-62
2023/03/23 00:06:45;;;;;;;14.13;5.93;;;15.00;91.40;;;;;;5081327;28;20477;-62
2023/03/23 00:09:12;;;;;;;13.70;7.23;;;14.90;90.90;;;;;;5066002;28;20475;-62
2023/03/23 00:11:39;;;;;;;14.53;8.17;;;14.90;91.30;;;;;;5062429;28;20893;-62
2023/03/23 00:14:12;;;;;;;15.17;5.77;;;15.00;91.50;;;;;;5062129;28;20549;-62
2023/03/23 00:16:40;;;;;;;14.10;8.13;;;15.10;91.40;;;;;;5075009;28;20506;-62
2023/03/23 00:19:09;;;;;;;12.23;6.57;;;15.00;91.20;;;;;;5064159;28;20578;-62
2023/03/23 00:21:38;;;;;;;22.83;9.70;;;15.00;91.30;;;;;;5064605;27;21493;-62
2023/03/23 00:24:08;;;;;;;12.83;6.90;;;15.10;90.90;;;;;;5063983;28;20745;-62
2023/03/23 00:26:36;;;;;;;22.83;11.40;;;13.80;90.40;;;;;;5071141;28;20517;-62
2023/03/23 00:29:03;;;;;;;8.10;5.13;;;15.10;91.10;;;;;;5070450;28;20487;-62
2023/03/23 00:31:32;;;;;;;22.93;11.13;;;15.10;91.10;;;;;;5064479;28;21093;-62
2023/03/23 00:34:03;;;;;;;12.50;5.87;;;15.10;91.10;;;;;;5071147;28;20873;-62
2023/03/23 00:36:30;;;;;;;22.50;11.00;;;15.10;91.10;;;;;;5065171;28;20484;-62
2023/03/23 00:38:59;;;;;;;12.77;6.87;;;15.10;91.40;;;;;;5052895;28;20881;-62
2023/03/23 00:41:27;;;;;;;15.90;6.00;;;15.10;91.60;;;;;;5078512;28;20480;-62
2023/03/23 00:43:55;;;;;;;13.10;6.70;;;15.00;91.60;;;;;;5063950;28;20473;-61
2023/03/23 00:46:22;;;;;;;16.23;8.20;;;15.10;91.40;;;;;;5072949;28;20544;-62
2023/03/23 00:48:50;;;;;;;14.23;5.57;;;15.00;91.60;;;;;;5070899;28;20931;-62
2023/03/23 00:51:18;;;;;;;16.93;8.53;;;15.10;91.40;;;;;;5067365;28;20493;-61
2023/03/23 00:53:45;;;;;;;17.20;8.10;;;;;;;;;;5070910;28;20573;-62
2023/03/23 00:56:12;;;;;;;15.60;7.63;;;15.00;91.40;;;;;;5066242;28;20919;-62
2023/03/23 00:58:39;;;;;;;19.80;9.60;;;15.00;91.40;;;;;;5058927;28;20490;-62
2023/03/23 01:01:06;;;;;;;12.70;6.67;;;;;;;;;;5063219;28;20478;-61
2023/03/23 01:03:33;;;;;;;23.53;11.17;;;14.90;91.30;;;;;;5070434;27;20485;-62
2023/03/23 01:06:08;;;;;;;12.50;6.83;;;14.80;91.20;;;;;;5067424;28;20996;-62
2023/03/23 01:08:36;;;;;;;19.83;8.63;;;14.90;91.60;;;;;;5058173;28;21100;-62
2023/03/23 01:11:06;;;;;;;19.67;6.07;;;15.00;91.80;;;;;;5088355;28;20572;-62
2023/03/23 01:13:33;;;;;;;21.50;9.70;;;14.90;91.60;;;;;;5078654;28;20477;-62
2023/03/23 01:15:59;;;;;;;31.90;7.53;;;14.90;91.60;;;;;;5058066;28;20489;-62
2023/03/23 01:18:26;;;;;;;20.13;9.30;;;14.80;91.70;;;;;;5072678;28;20513;-62
2023/03/23 01:20:53;;;;;;;20.53;6.57;;;14.70;91.70;;;;;;5070769;28;20474;-62
2023/03/23 01:23:21;;;;;;;12.37;5.33;;;14.70;91.80;;;;;;5064242;27;20493;-62
2023/03/23 01:25:49;;;;;;;11.03;5.40;;;14.70;92.00;;;;;;5086919;28;20830;-62
2023/03/23 01:28:15;;;;;;;11.50;5.90;;;14.50;92.00;;;;;;5070513;28;20586;-62
2023/03/23 01:30:43;;;;;;;16.73;6.23;;;14.50;92.30;;;;;;5066548;28;20488;-62
2023/03/23 01:33:09;;;;;;;13.63;6.70;;;14.50;92.50;;;;;;5083220;28;20535;-62
2023/03/23 01:35:39;;;;;;;20.33;7.77;;;14.30;92.70;;;;;;5080311;28;20474;-62
2023/03/23 01:38:05;;;;;;;11.03;4.60;;;11.60;91.50;;;;;;5084379;27;20477;-62
2023/03/23 01:40:33;;;;;;;20.87;8.53;;;14.40;93.00;;;;;;5082866;28;20487;-62
2023/03/23 01:43:00;;;;;;;16.60;6.77;;;14.40;93.00;;;;;;5080308;28;20465;-62
2023/03/23 01:45:32;;;;;;;37.67;11.37;;;14.40;93.00;;;;;;5072572;28;20486;-61
2023/03/23 01:48:07;;;;;;;16.23;5.07;;;14.40;93.20;;;;;;5079634;28;20483;-62
2023/03/23 01:50:40;;;;;;;33.30;10.70;;;14.40;93.00;;;;;;5051791;28;20483;-62
2023/03/23 01:53:10;;;;;;;14.70;5.83;;;14.50;93.10;;;;;;5065840;28;20486;-61
2023/03/23 01:55:41;;;;;;;28.20;9.23;;;14.50;92.90;;;;;;5071814;28;20646;-62
2023/03/23 01:58:10;;;;;;;19.33;6.77;;;14.50;92.80;;;;;;5082340;28;20480;-62
2023/03/23 02:00:40;;;;;;;27.97;9.30;;;14.50;93.10;;;;;;5085931;28;20849;-61
2023/03/23 02:03:10;;;;;;;24.83;7.50;;;14.50;92.90;;;;;;5087655;28;20557;-61
2023/03/23 02:05:40;;;;;;;26.63;9.20;;;14.50;92.80;;;;;;5076920;28;20565;-62
2023/03/23 02:08:09;;;;;;;16.03;7.50;;;14.50;92.80;;;;;;5054411;28;20469;-62
2023/03/23 02:10:38;;;;;;;28.13;9.67;;;14.50;93.00;;;;;;5070116;28;20473;-61
2023/03/23 02:13:07;;;;;;;8.57;4.17;;;14.50;92.90;;;;;;5085895;28;20483;-62
2023/03/23 02:15:44;;;;;;;27.43;10.63;;;14.50;93.00;;;;;;5077539;28;20462;-62
2023/03/23 02:18:20;;;;;;;14.10;6.03;;;14.50;93.10;;;;;;5075907;28;20480;-62
2023/03/23 02:21:06;;;;;;;16.03;5.97;;;14.50;92.90;;;;;;5085105;28;20482;-62
2023/03/23 02:24:02;;;;;;;26.83;10.97;;;14.40;92.90;;;;;;5069499;28;20481;-62
2023/03/23 02:26:47;;;;;;;23.03;10.53;;;14.50;93.00;;;;;;5075636;28;20474;-62
2023/03/23 02:29:47;;;;;;;10.70;5.40;;;14.40;93.20;;;;;;5071052;28;20473;-61
2023/03/23 02:32:25;;;;;;;16.33;7.57;;;14.40;93.30;;;;;;5062073;28;20483;-62
2023/03/23 02:34:55;;;;;;;23.30;6.50;;;;;;;;;;5069448;28;21046;-62
2023/03/23 02:37:27;;;;;;;31.97;8.37;;;14.40;93.30;;;;;;5075389;28;20494;-62
2023/03/23 02:40:00;;;;;;;31.17;6.67;;;14.30;93.40;;;;;;5064074;28;20482;-62
2023/03/23 02:42:31;;;;;;;38.07;13.33;;;14.30;93.50;;;;;;5086460;28;20538;-62
2023/03/23 02:45:03;;;;;;;21.60;6.57;;;14.30;93.60;;;;;;5077692;28;20469;-62
2023/03/23 02:47:31;;;;;;;32.63;10.67;;;14.30;93.50;;;;;;5053467;28;20519;-62
2023/03/23 02:50:00;;;;;;;19.13;6.37;;;14.30;93.50;;;;;;5066252;28;20489;-62
2023/03/23 02:52:30;;;;;;;21.00;10.20;;;14.40;93.50;;;;;;5095021;28;20988;-62
2023/03/23 02:54:59;;;;;;;11.13;5.47;;;14.40;93.30;;;;;;5070218;28;20468;-62
2023/03/23 02:57:27;;;;;;;27.37;10.60;;;14.30;93.30;;;;;;5058851;28;20548;-62
2023/03/23 02:59:54;;;;;;;25.33;5.10;;;14.30;93.40;;;;;;5082109;28;20489;-62
2023/03/23 03:02:24;;;;;;;13.33;8.17;;;14.30;93.60;;;;;;5069130;27;20477;-62
2023/03/23 03:04:56;;;;;;;7.93;5.13;;;14.40;93.40;;;;;;5078630;28;21139;-61
2023/03/23 03:07:48;;;;;;;15.37;6.37;;;14.40;93.20;;;;;;5076698;28;20943;-62
2023/03/23 03:10:23;;;;;;;8.40;5.57;;;14.40;93.30;;;;;;5061144;28;20470;-62
2023/03/23 03:12:57;;;;;;;8.57;5.77;;;14.40;93.20;;;;;;5091915;28;20473;-62
2023/03/23 03:15:30;;;;;;;15.23;8.60;;;14.40;93.00;;;;;;5072922;28;20480;-62
2023/03/23 03:18:04;;;;;;;8.50;5.30;;;14.40;93.10;;;;;;5074259;28;20497;-61
2023/03/23 03:20:33;;;;;;;18.00;9.33;;;14.50;93.10;;;;;;5062109;28;20568;-62
2023/03/23 03:23:02;;;;;;;7.90;4.83;;;14.50;93.00;;;;;;5084329;28;20482;-62
2023/03/23 03:25:30;;;;;;;14.67;8.43;;;14.50;93.20;;;;;;5067611;28;20475;-62
2023/03/23 03:27:57;;;;;;;8.60;5.37;;;14.50;93.50;;;;;;5088783;28;20946;-62
2023/03/23 03:30:27;;;;;;;17.80;8.07;;;14.60;93.40;;;;;;5074429;28;20569;-62
2023/03/23 03:32:54;;;;;;;7.97;5.50;;;14.50;93.80;;;;;;5071493;28;20581;-62
2023/03/23 03:35:22;;;;;;;10.73;5.17;;;14.50;93.80;;;;;;5082988;28;20496;-62
2023/03/23 03:37:50;;;;;;;18.63;5.17;;;14.40;94.10;;;;;;5069598;28;21049;-62
2023/03/23 03:40:20;;;;;;;15.80;4.57;;;;;;;;;;5087817;28;20536;-62
2023/03/23 03:42:48;;;;;;;15.20;6.17;;;;;;;;;;5082118;28;20473;-62
2023/03/23 03:45:17;;;;;;;15.90;5.70;;;14.40;94.70;;;;;;5084107;28;21006;-62
2023/03/23 03:47:44;;;;;;;14.60;4.93;;;14.40;94.70;;;;;;5081120;28;20516;-61
2023/03/23 03:50:11;;;;;;;10.77;5.27;;;14.30;94.70;;;;;;5086711;28;20492;-62
2023/03/23 03:52:39;;;;;;;16.33;8.40;;;14.30;95.70;;;;;;5078477;28;20752;-62
2023/03/23 03:55:07;;;;;;;17.70;5.30;;;;;;;;;;5061423;28;20842;-62
2023/03/23 03:57:35;;;;;;;23.80;8.50;;;14.10;95.90;;;;;;5056742;28;20598;-61
2023/03/23 04:00:12;;;;;;;17.97;6.70;;;14.10;95.40;;;;;;5085534;28;20486;-62
2023/03/23 04:02:40;;;;;;;22.20;6.30;;;14.10;95.70;;;;;;5071145;28;20477;-62
2023/03/23 04:05:08;;;;;;;15.60;4.03;;;;;;;;;;5066276;28;20853;-62
2023/03/23 04:07:37;;;;;;;29.00;10.17;;;14.00;96.10;;;;;;5063409;28;20485;-62
2023/03/23 04:10:05;;;;;;;29.63;6.50;;;14.00;95.70;;;;;;5074058;28;20557;-62
2023/03/23 04:12:32;;;;;;;32.10;8.90;;;14.10;95.70;;;;;;5076421;28;20721;-62
2023/03/23 04:15:00;;;;;;;12.17;3.73;;;14.00;96.10;;;;;;5081023;28;20783;-62
2023/03/23 04:17:27;;;;;;;20.83;9.10;;;;;;;;;;5063281;28;20486;-62
2023/03/23 04:19:56;;;;;;;12.43;4.80;;;13.90;96.50;;;;;;5081112;28;20478;-62
2023/03/23 04:22:29;;;;;;;21.47;7.30;;;13.90;96.30;;;;;;5075205;28;20640;-61
2023/03/23 04:24:58;;;;;;;13.53;4.90;;;14.00;96.30;;;;;;5064953;28;20906;-62
2023/03/23 04:27:27;;;;;;;24.23;7.43;;;14.00;96.60;;;;;;5079941;28;20557;-61
2023/03/23 04:29:54;;;;;;;38.93;7.80;;;14.00;96.70;;;;;;5062393;28;20479;-61
2023/03/23 04:32:24;;;;;;;38.80;8.50;;;;;;;;;;5069028;27;20488;-62
2023/03/23 04:34:52;;;;;;;26.30;6.30;;;14.00;97.00;;;;;;5071351;28;20520;-61
2023/03/23 04:37:18;;;;;;;30.17;9.00;;;13.90;97.20;;;;;;5080327;28;20482;-61
2023/03/23 04:39:45;;;;;;;20.57;5.80;;;13.70;97.50;;;;;;5080292;28;20465;-62
2023/03/23 04:42:14;;;;;;;21.10;8.00;;;;;;;;;;5069363;28;20557;-61
2023/03/23 04:44:43;;;;;;;32.17;7.63;;;;;;;;;;5084733;28;20486;-62
2023/03/23 04:47:10;;;;;;;26.47;6.70;;;13.60;97.60;;;;;;5062311;28;20473;-61
2023/03/23 04:49:38;;;;;;;42.93;10.90;;;;;;;;;;5077386;28;20490;-62
2023/03/23 04:52:05;;;;;;;30.10;7.10;;;13.50;98.10;;;;;;5070711;28;20485;-62
2023/03/23 04:54:32;;;;;;;43.13;11.30;;;13.50;98.40;;;;;;5075280;28;20522;-62
2023/03/23 04:56:59;;;;;;;21.50;6.50;;;13.50;98.60;;;;;;5073295;28;20498;-62
2023/03/23 04:59:27;;;;;;;48.90;13.10;;;;;;;;;;5071244;28;20505;-61
2023/03/23 05:01:55;;;;;;;20.40;7.27;;;15.60;99.70;;;;;;5079887;28;20485;-62
2023/03/23 05:04:22;;;;;;;20.77;6.67;;;13.30;98.80;;;;;;5074516;28;20503;-62
2023/03/23 05:06:50;;;;;;;27.33;7.13;;;;;;;;;;5079536;28;20482;-62
2023/03/23 05:09:17;;;;;;;22.93;7.17;;;13.30;98.70;;;;;;5070834;28;20485;-63
2023/03/23 05:11:44;;;;;;;27.90;6.43;;;13.30;98.80;;;;;;5066838;28;20513;-62
2023/03/23 05:14:11;;;;;;;29.93;7.13;;;;;;;;;;5066733;28;20485;-62
2023/03/23 05:16:39;;;;;;;36.07;10.50;;;;;;;;;;5041919;28;20497;-61
2023/03/23 05:19:07;;;;;;;38.43;7.00;;;;;;;;;;5074183;28;21035;-62
2023/03/23 05:21:34;;;;;;;32.40;9.93;;;13.30;98.70;;;;;;5073665;28;20509;-62
2023/03/23 05:24:02;;;;;;;17.53;6.13;;;13.20;98.90;;;;;;5045746;28;20487;-62
2023/03/23 05:26:32;;;;;;;29.07;9.80;;;13.30;98.90;;;;;;5091445;27;20489;-62
2023/03/23 05:28:59;;;;;;;18.13;5.40;;;14.40;99.50;;;;;;5068668;28;21030;-62
2023/03/23 05:31:26;;;;;;;21.50;7.20;;;13.20;99.30;;;;;;5065783;28;20486;-62
2023/03/23 05:33:53;;;;;;;32.43;6.90;;;;;;;;;;5061674;28;20858;-62
2023/03/23 05:36:22;;;;;;;25.17;7.27;;;;;;;;;;5079667;28;20474;-62
2023/03/23 05:38:49;;;;;;;23.43;7.07;;;13.00;99.30;;;;;;5066081;28;20494;-62
2023/03/23 05:41:17;;;;;;;21.23;7.27;;;;;;;;;;5076862;28;20957;-62
2023/03/23 05:43:44;;;;;;;25.23;5.10;;;13.00;99.90;;;;;;5050852;28;20485;-61
2023/03/23 05:46:11;;;;;;;42.20;10.60;;;13.00;99.70;;;;;;5081650;28;20478;-62
2023/03/23 05:48:38;;;;;;;32.80;8.57;;;13.10;99.60;;;;;;5082898;28;20913;-62
2023/03/23 05:51:05;;;;;;;25.47;5.73;;;13.00;99.90;;;;;;5087590;28;20780;-62
2023/03/23 05:53:32;;;;;;;26.63;7.10;;;13.00;99.90;;;;;;5074171;28;20466;-62
2023/03/23 05:56:01;;;;;;;22.33;5.90;;;13.00;99.90;;;;;;5075456;28;20485;-62
2023/03/23 05:58:29;;;;;;;32.67;9.53;;;12.90;99.90;;;;;;5069258;28;20679;-62
2023/03/23 06:00:56;;;;;;;17.43;5.40;;;;;;;;;;5065745;28;20558;-62
2023/03/23 06:03:23;;;;;;;18.30;8.50;;;9.50;99.90;;;;;;5070215;28;20836;-61
2023/03/23 06:05:52;;;;;;;14.80;6.60;;;12.70;99.90;;;;;;5067340;28;21150;-62
2023/03/23 06:08:18;;;;;;;11.17;5.20;;;12.60;99.90;;;;;;5077114;28;20558;-62
2023/03/23 06:10:45;;;;;;;9.20;5.30;;;12.70;99.90;;;;;;5090257;28;20473;-62
2023/03/23 06:13:12;;;;;;;14.00;6.00;;;12.60;99.90;;;;;;5062356;28;20637;-63
2023/03/23 06:15:40;;;;;;;17.47;9.10;;;12.60;99.90;;;;;;5067480;28;21211;-62
2023/03/23 06:18:07;;;;;;;11.70;6.40;;;12.60;99.90;;;;;;5069819;28;20482;-62
2023/03/23 06:20:35;;;;;;;17.73;7.73;;;12.60;99.90;;;;;;5074849;28;20849;-62
2023/03/23 06:23:03;;;;;;;11.17;5.30;;;12.60;99.90;;;;;;5071460;28;20565;-62
2023/03/23 06:25:29;;;;;;;26.57;11.43;;;12.60;99.90;;;;;;5065380;28;20553;-62
2023/03/23 06:27:56;;;;;;;12.00;5.00;;;12.60;99.90;;;;;;5081318;28;20488;-62
2023/03/23 06:30:23;;;;;;;18.87;9.07;;;12.60;99.90;;;;;;5071923;28;20473;-62
2023/03/23 06:32:51;;;;;;;12.87;6.00;;;12.60;99.90;;;;;;5073535;28;20480;-62
2023/03/23 06:35:18;;;;;;;15.23;6.27;;;12.60;99.90;;;;;;5063594;28;20508;-62
2023/03/23 06:37:45;;;;;;;14.13;6.73;;;12.70;99.90;;;;;;5073564;28;20962;-62
2023/03/23 06:40:12;;;;;;;11.33;6.30;;;12.60;99.90;;;;;;5081007;28;20599;-62
2023/03/23 06:42:39;;;;;;;12.20;6.50;;;12.70;99.90;;;;;;5081253;28;20583;-62
2023/03/23 06:45:07;;;;;;;11.20;6.40;;;12.60;99.90;;;;;;5053495;28;20493;-62
2023/03/23 06:47:34;;;;;;;17.23;9.87;;;12.60;99.90;;;;;;5075687;28;21103;-62
2023/03/23 06:50:03;;;;;;;11.63;4.43;;;12.70;99.90;;;;;;5083006;28;21083;-62
2023/03/23 06:52:30;;;;;;;19.80;11.00;;;12.70;99.90;;;;;;5094620;28;20473;-62
2023/03/23 06:54:56;;;;;;;9.60;5.63;;;12.70;99.90;;;;;;5078724;28;20470;-62
2023/03/23 06:57:23;;;;;;;13.90;8.47;;;12.90;99.90;;;;;;5057600;28;20983;-62
2023/03/23 06:59:50;;;;;;;12.00;6.97;;;12.90;99.90;;;;;;5063949;28;20490;-61
2023/03/23 07:02:17;;;;;;;10.00;6.07;;;12.90;99.90;;;;;;5054274;28;20618;-62
2023/03/23 07:04:43;;;;;;;8.80;5.07;;;12.80;99.90;;;;;;5077600;28;20489;-62
2023/03/23 07:07:14;;;;;;;6.63;5.13;;;12.90;99.90;;;;;;5077282;28;20485;-62
2023/03/23 07:09:42;;;;;;;11.60;7.50;;;12.80;99.90;;;;;;5065888;28;20481;-62
2023/03/23 07:12:09;;;;;;;11.53;7.27;;;12.90;99.90;;;;;;5071016;28;20589;-62
2023/03/23 07:14:36;;;;;;;14.10;8.13;;;12.80;99.90;;;;;;5073317;28;20487;-60
2023/03/23 07:17:04;;;;;;;14.83;7.43;;;12.90;99.90;;;;;;5073159;28;20484;-61
2023/03/23 07:19:31;;;;;;;23.00;11.87;;;13.00;99.90;;;;;;5078195;28;20492;-61
2023/03/23 07:21:58;;;;;;;9.47;5.93;;;13.00;99.90;;;;;;5070279;28;20486;-61
2023/03/23 07:24:26;;;;;;;14.83;6.57;;;12.40;99.90;;;;;;5083091;28;20481;-61
2023/03/23 07:26:52;;;;;;;7.80;5.60;;;13.00;99.90;;;;;;5074215;28;20477;-62
2023/03/23 07:29:19;;;;;;;12.97;7.57;;;13.00;99.90;;;;;;5084477;28;20986;-61
2023/03/23 07:31:46;;;;;;;9.60;5.57;;;13.10;99.90;;;;;;5077731;28;20481;-61
2023/03/23 07:34:13;;;;;;;7.97;4.70;;;13.20;99.90;;;;;;5079182;28;20790;-61
2023/03/23 07:36:40;;;;;;;14.70;6.00;;;13.30;99.90;;;;;;5058527;28;20570;-61
2023/03/23 07:39:06;;;;;;;14.67;6.30;;;13.40;99.90;;;;;;5079254;28;20485;-62
2023/03/23 07:41:35;;;;;;;17.00;9.93;;;13.40;99.90;;;;;;5067282;28;20865;-62
2023/03/23 07:44:02;;;;;;;7.97;5.13;;;13.40;99.90;;;;;;5077120;28;20573;-61
2023/03/23 07:46:29;;;;;;;13.83;7.40;;;13.40;99.90;;;;;;5062628;28;20481;-62
2023/03/23 07:48:56;;;;;;;10.73;6.67;;;13.40;99.90;;;;;;5081956;28;20538;-62
2023/03/23 07:51:23;;;;;;;21.17;10.10;;;13.40;99.90;;;;;;5082896;28;20509;-61
2023/03/23 07:53:51;;;;;;;9.23;4.87;;;13.40;99.90;;;;;;5074432;28;20485;-61
2023/03/23 07:56:19;;;;;;;11.13;6.30;;;13.40;99.90;;;;;;5068291;28;20834;-62
2023/03/23 07:58:47;;;;;;;9.07;5.90;;;13.40;99.90;;;;;;5076690;28;20493;-61
2023/03/23 08:01:15;;;;;;;9.03;5.07;;;12.50;99.90;;;;;;5057669;28;20829;-61
2023/03/23 08:03:41;;;;;;;8.63;5.53;;;13.50;99.90;;;;;;5072928;28;20475;-61
2023/03/23 08:06:09;;;;;;;11.67;6.57;;;13.40;99.90;;;;;;5069188;28;20489;-62
2023/03/23 08:08:36;;;;;;;23.43;8.77;;;13.40;99.90;;;;;;5076486;28;20622;-61
2023/03/23 08:11:04;;;;;;;10.93;6.27;;;13.40;99.90;;;;;;5073849;28;20478;-62
2023/03/23 08:13:30;;;;;;;17.63;10.23;;;13.30;99.90;;;;;;5070892;28;20744;-61
2023/03/23 08:15:58;;;;;;;26.30;6.03;;;13.30;99.90;;;;;;5069693;28;20474;-61
2023/03/23 08:18:26;;;;;;;14.27;8.83;;;13.40;99.90;;;;;;5083779;27;20481;-62
2023/03/23 08:20:53;;;;;;;12.53;7.00;;;13.30;99.90;;;;;;5067020;28;20540;-61
2023/03/23 08:23:21;;;;;;;10.43;5.27;;;13.30;99.90;;;;;;5058443;28;20853;-62
2023/03/23 08:25:48;;;;;;;12.03;6.60;;;13.30;99.90;;;;;;5058898;28;20960;-62
2023/03/23 08:28:15;;;;;;;7.73;5.30;;;13.30;99.90;;;;;;5066275;28;20809;-62
2023/03/23 08:30:43;;;;;;;11.33;6.17;;;13.10;99.90;;;;;;5083333;27;21197;-62
2023/03/23 08:33:11;;;;;;;7.73;5.77;;;13.10;99.90;;;;;;5075752;28;20484;-61
2023/03/23 08:35:38;;;;;;;10.70;7.90;;;13.10;99.90;;;;;;5062314;28;20482;-61
2023/03/23 08:38:08;;;;;;;9.23;5.20;;;13.10;99.90;;;;;;5073485;28;21281;-62
2023/03/23 08:40:34;;;;;;;11.93;8.60;;;13.00;99.90;;;;;;5078888;28;20497;-61
2023/03/23 08:43:01;;;;;;;10.07;7.03;;;13.10;99.90;;;;;;5078430;28;20852;-62
2023/03/23 08:45:28;;;;;;;12.50;7.43;;;12.90;99.90;;;;;;5067649;28;20479;-61
2023/03/23 08:47:56;;;;;;;9.10;5.00;;;12.90;99.90;;;;;;5041647;28;20845;-62
2023/03/23 08:50:26;;;;;;;13.00;8.00;;;13.00;99.90;;;;;;5064024;28;21054;-61
2023/03/23 08:52:53;;;;;;;11.63;6.00;;;13.00;99.90;;;;;;5072344;28;20563;-61
2023/03/23 08:56:18;;;;;;;6.03;4.80;;;13.00;99.90;;;;;;5071557;28;20490;-61
2023/03/23 08:59:16;;;;;;;11.60;6.47;;;12.90;99.90;;;;;;5057060;28;20471;-61
2023/03/23 09:01:42;;;;;;;11.63;5.83;;;12.90;99.90;;;;;;5076093;28;20466;-62
2023/03/23 09:04:11;;;;;;;13.63;8.20;;;13.00;99.90;;;;;;5070498;28;20473;-61
2023/03/23 09:06:39;;;;;;;18.87;8.80;;;12.90;99.90;;;;;;5065529;28;20877;-61
2023/03/23 09:09:06;;;;;;;7.10;5.60;;;13.00;99.90;;;;;;5079962;28;20487;-61
2023/03/23 09:11:33;;;;;;;16.57;8.83;;;12.90;99.90;;;;;;5081607;28;20565;-61
2023/03/23 09:14:00;;;;;;;8.13;6.00;;;12.90;99.90;;;;;;5068934;28;20810;-61
2023/03/23 09:16:28;;;;;;;12.83;8.70;;;13.10;99.90;;;;;;5048846;28;20960;-61
2023/03/23 09:18:56;;;;;;;9.83;5.27;;;13.00;99.90;;;;;;5063755;28;20482;-62
2023/03/23 09:21:23;;;;;;;13.90;6.30;;;13.00;99.90;;;;;;5084950;28;21007;-61
2023/03/23 09:23:51;;;;;;;9.10;5.73;;;13.10;99.90;;;;;;5074052;28;20482;-61
2023/03/23 09:26:18;;;;;;;17.23;5.80;;;13.20;99.90;;;;;;5068469;28;20477;-61
2023/03/23 09:28:45;;;;;;;6.73;5.03;;;13.20;99.90;;;;;;5064353;28;20527;-62
2023/03/23 09:31:12;;;;;;;12.43;8.20;;;13.20;99.90;;;;;;5089919;28;20481;-61
2023/03/23 09:33:39;;;;;;;9.53;6.57;;;13.10;99.90;;;;;;5069233;28;20486;-60
2023/03/23 09:36:08;;;;;;;8.30;6.03;;;13.10;99.90;;;;;;5067683;28;20491;-62
2023/03/23 09:38:35;;;;;;;12.00;8.93;;;13.10;99.90;;;;;;5078282;27;20487;-62
2023/03/23 09:41:25;;;;;;;12.23;5.93;;;13.00;99.90;;;;;;5071742;28;20473;-62
2023/03/23 09:44:04;;;;;;;7.63;6.40;;;12.90;99.90;;;;;;5059348;28;21212;-61
2023/03/23 09:46:47;;;;;;;16.70;9.93;;;12.90;99.90;;;;;;5074907;28;20481;-61
2023/03/23 09:49:18;;;;;;;8.57;5.40;;;12.90;99.90;;;;;;5071666;28;20790;-61
2023/03/23 09:51:48;;;;;;;11.07;7.40;;;12.80;99.90;;;;;;5070869;28;20489;-61
2023/03/23 09:54:20;;;;;;;10.20;6.70;;;12.80;99.90;;;;;;5078167;28;20480;-62
2023/03/23 09:56:50;;;;;;;6.57;4.83;;;12.80;99.90;;;;;;5055965;28;20491;-61
2023/03/23 09:59:22;;;;;;;9.80;6.90;;;12.80;99.90;;;;;;5045649;28;20570;-62
2023/03/23 10:01:51;;;;;;;13.30;7.93;;;12.90;99.90;;;;;;5074075;28;20519;-61
2023/03/23 10:04:29;;;;;;;13.70;8.80;;;12.90;99.90;;;;;;5060034;28;20864;-61
2023/03/23 10:07:00;;;;;;;8.17;5.30;;;12.90;99.90;;;;;;5079754;28;20504;-61
2023/03/23 10:09:27;;;;;;;20.40;10.67;;;13.00;99.90;;;;;;5074409;28;20846;-61
2023/03/23 10:12:05;;;;;;;15.47;9.10;;;13.00;99.90;;;;;;5073438;28;20991;-61
2023/03/23 10:14:44;;;;;;;15.30;9.00;;;12.90;99.90;;;;;;5062954;28;20559;-62
2023/03/23 10:17:15;;;;;;;9.20;6.60;;;12.90;99.90;;;;;;5087478;28;20485;-61
2023/03/23 10:19:49;;;;;;;15.40;8.57;;;13.10;99.90;;;;;;5071384;28;20493;-61
2023/03/23 10:22:22;;;;;;;11.20;7.53;;;13.20;99.90;;;;;;5086460;28;20484;-62
2023/03/23 10:24:53;;;;;;;11.80;6.60;;;13.20;99.90;;;;;;5072704;28;20513;-61
2023/03/23 10:27:27;;;;;;;12.10;7.97;;;13.50;99.90;;;;;;5064446;28;20478;-61
2023/03/23 10:30:00;;;;;;;7.43;6.63;;;13.70;99.90;;;;;;5069956;28;20485;-61
2023/03/23 10:32:42;;;;;;;9.77;7.00;;;14.00;99.90;;;;;;5061837;28;20995;-62
2023/03/23 10:35:14;;;;;;;7.37;6.27;;;13.90;99.90;;;;;;5058285;28;20490;-62
2023/03/23 10:37:47;;;;;;;10.30;7.37;;;14.50;99.90;;;;;;5065676;28;20556;-61
2023/03/23 10:40:17;;;;;;;8.43;6.40;;;14.00;99.90;;;;;;5071420;28;20535;-62
2023/03/23 10:42:45;;;;;;;11.20;8.60;;;14.00;99.90;;;;;;5067949;28;20505;-61
2023/03/23 10:45:18;;;;;;;11.87;6.37;;;14.10;99.90;;;;;;5075424;28;21002;-62
2023/03/23 10:47:49;;;;;;;9.77;6.60;;;14.00;99.90;;;;;;5073382;28;20494;-62
2023/03/23 10:50:18;;;;;;;19.93;5.00;;;14.00;99.90;;;;;;5055276;28;20485;-62
2023/03/23 10:52:45;;;;;;;11.93;8.03;;;13.90;99.90;;;;;;5082275;28;20493;-61
2023/03/23 10:55:14;;;;;;;14.67;7.40;;;14.00;99.90;;;;;;5056415;28;20493;-62
2023/03/23 10:57:44;;;;;;;15.00;7.67;;;14.10;99.90;;;;;;5086185;28;20497;-61
2023/03/23 11:00:21;;;;;;;13.17;7.87;;;14.10;99.90;;;;;;5060989;28;20486;-62
2023/03/23 11:02:58;;;;;;;11.07;6.50;;;14.10;99.90;;;;;;5074257;28;20488;-62
2023/03/23 11:05:28;;;;;;;17.77;9.40;;;14.10;99.90;;;;;;5072933;28;20481;-61
2023/03/23 11:07:57;;;;;;;11.27;6.77;;;14.10;99.90;;;;;;5085533;28;20493;-62
2023/03/23 11:10:26;;;;;;;18.60;8.30;;;14.20;99.90;;;;;;5078113;28;21054;-61
2023/03/23 11:12:57;;;;;;;14.00;7.20;;;14.20;99.90;;;;;;5072185;28;21310;-62
2023/03/23 11:15:31;;;;;;;17.00;6.30;;;14.20;99.90;;;;;;5090858;28;20478;-61
2023/03/23 11:18:00;;;;;;;16.53;9.10;;;14.00;99.90;;;;;;5071221;28;20532;-62
2023/03/23 11:20:29;;;;;;;17.70;9.03;;;14.10;99.90;;;;;;5084755;28;20566;-62
2023/03/23 11:22:56;;;;;;;12.20;5.53;;;12.30;99.90;;;;;;5089333;28;20481;-61
2023/03/23 11:25:23;;;;;;;18.80;8.97;;;14.10;99.90;;;;;;5080039;28;20482;-61
2023/03/23 11:27:51;;;;;;;14.87;7.50;;;14.10;99.90;;;;;;5078848;28;20501;-61
2023/03/23 11:30:26;;;;;;;15.10;6.33;;;14.00;99.90;;;;;;5089245;28;20561;-61
2023/03/23 11:32:56;;;;;;;16.90;7.33;;;14.00;99.90;;;;;;5061070;28;20485;-61
2023/03/23 11:35:27;;;;;;;20.87;9.07;;;13.90;99.90;;;;;;5095959;28;20561;-62
2023/03/23 11:37:55;;;;;;;19.83;7.67;;;13.90;99.90;;;;;;5075509;28;20466;-61
2023/03/23 11:40:24;;;;;;;19.83;7.40;;;13.90;99.90;;;;;;5072644;28;20501;-61
2023/03/23 11:42:59;;;;;;;24.57;6.73;;;14.00;99.90;;;;;;5077871;28;20479;-61
2023/03/23 11:45:33;;;;;;;19.00;7.93;;;14.00;99.90;;;;;;5073996;28;20478;-61
2023/03/23 11:48:13;;;;;;;35.00;8.37;;;14.10;99.90;;;;;;5082077;28;20470;-61
2023/03/23 11:50:50;;;;;;;17.47;6.60;;;14.10;99.90;;;;;;5076048;28;20477;-62
2023/03/23 11:53:25;;;;;;;11.20;5.30;;;14.30;99.90;;;;;;5071911;28;20486;-61
2023/03/23 11:56:11;;;;;;;22.40;8.10;;;14.20;99.90;;;;;;5057421;28;20530;-62
2023/03/23 11:58:38;;;;;;;15.60;5.60;;;16.90;99.90;;;;;;5095905;28;20488;-61
2023/03/23 12:01:11;;;;;;;16.40;6.60;;;14.30;99.90;;;;;;5086978;28;21134;-62
2023/03/23 12:03:59;;;;;;;24.57;8.00;;;14.30;99.90;;;;;;5096200;28;20509;-62
2023/03/23 12:06:36;;;;;;;20.73;7.80;;;14.40;99.90;;;;;;5077024;28;20994;-61
2023/03/23 12:09:14;;;;;;;27.30;6.30;;;14.40;99.90;;;;;;5067559;28;20827;-62
2023/03/23 12:11:52;;;;;;;20.37;9.07;;;14.40;99.90;;;;;;5073911;28;20486;-61
2023/03/23 12:14:28;;;;;;;27.93;7.03;;;14.50;99.90;;;;;;5084773;28;20475;-61
2023/03/23 12:17:07;;;;;;;15.63;7.10;;;14.50;99.90;;;;;;5074836;28;20482;-62
2023/03/23 12:19:45;;;;;;;43.50;10.70;;;14.50;99.90;;;;;;5067282;28;20462;-60
2023/03/23 12:22:23;;;;;;;14.37;6.43;;;14.60;99.90;;;;;;5075269;28;20874;-61
2023/03/23 12:25:00;;;;;;;17.03;6.50;;;14.50;99.90;;;;;;5062263;28;20490;-61
2023/03/23 12:27:32;;;;;;;31.93;12.07;;;14.00;99.90;;;;;;5086610;28;21075;-62
2023/03/23 12:30:15;;;;;;;13.07;6.23;;;14.10;99.90;;;;;;5069852;28;20483;-62
2023/03/23 12:32:55;;;;;;;10.87;7.00;;;13.90;99.90;;;;;;5067545;28;20467;-62
2023/03/23 12:35:34;;;;;;;16.93;7.27;;;14.30;99.90;;;;;;5063210;28;20493;-61
2023/03/23 12:38:13;;;;;;;11.10;6.87;;;14.40;99.90;;;;;;5074457;28;20474;-62
2023/03/23 12:41:06;;;;;;;17.40;6.60;;;14.80;99.90;;;;;;5090502;28;20481;-61
2023/03/23 12:43:39;;;;;;;12.73;7.53;;;15.00;99.90;;;;;;5072128;28;20485;-62
2023/03/23 12:46:21;;;;;;;12.07;7.20;;;15.30;99.90;;;;;;5063569;28;20972;-62
2023/03/23 12:48:55;;;;;;;9.70;6.00;;;15.20;99.90;;;;;;5069122;28;20466;-62
2023/03/23 12:51:31;;;;;;;15.33;8.60;;;15.30;99.90;;;;;;5066762;28;20472;-62
2023/03/23 12:54:03;;;;;;;10.67;5.70;;;15.40;99.90;;;;;;5094646;28;20477;-62
2023/03/23 12:56:35;;;;;;;18.30;9.23;;;15.30;99.90;;;;;;5074046;28;21128;-62
2023/03/23 12:59:10;;;;;;;13.33;5.27;;;15.40;99.90;;;;;;5083187;28;20802;-62